Terminal Aerodrome Forecast
Issued by NWS Sioux Falls, SD

Home | Current Version | Previous Version | Graphics & Text | Print | Product List | Glossary On
Versions: 1 2 3 4 5 6 7 8 9 10 11 12 13 14 15 16 17
907
FTUS43 KFSD 281912 AAA
TAFFSD
TAF AMD
KFSD 281912Z 2819/2918 02011KT P6SM BKN025
     FM282100 02011KT P6SM SHRA VCTS BKN030CB
      TEMPO 2821/2823 3SM TSRA BKN022CB
     FM282300 34008KT P6SM BKN025
     FM290300 28004KT P6SM SCT030 BKN150
     FM291000 24004KT 3SM BR SCT070
     FM291500 27008KT P6SM SCT030=

USA.gov is the U.S. government's official web portal to all federal, state and local government web resources and services.